sensor_id;sensor_type;location;lat;lon;timestamp;P1;durP1;ratioP1;P2;durP2;ratioP2
66402;SDS011;53212;52.112;5.144;2022-11-13T00:00:31;14.30;;;10.30;;
66402;SDS011;53212;52.112;5.144;2022-11-13T00:02:57;19.80;;;11.90;;
66402;SDS011;53212;52.112;5.144;2022-11-13T00:05:22;17.50;;;11.20;;
66402;SDS011;53212;52.112;5.144;2022-11-13T00:07:47;15.80;;;11.40;;
66402;SDS011;53212;52.112;5.144;2022-11-13T00:10:13;16.60;;;12.50;;
66402;SDS011;53212;52.112;5.144;2022-11-13T00:12:39;17.60;;;11.60;;
66402;SDS011;53212;52.112;5.144;2022-11-13T00:15:05;19.30;;;12.60;;
66402;SDS011;53212;52.112;5.144;2022-11-13T00:17:30;17.60;;;11.90;;
66402;SDS011;53212;52.112;5.144;2022-11-13T00:19:56;17.20;;;11.50;;
66402;SDS011;53212;52.112;5.144;2022-11-13T00:22:21;14.00;;;10.80;;
66402;SDS011;53212;52.112;5.144;2022-11-13T00:24:47;15.00;;;10.80;;
66402;SDS011;53212;52.112;5.144;2022-11-13T00:27:13;13.60;;;10.20;;
66402;SDS011;53212;52.112;5.144;2022-11-13T00:29:39;15.40;;;11.20;;
66402;SDS011;53212;52.112;5.144;2022-11-13T00:32:04;17.40;;;12.00;;
66402;SDS011;53212;52.112;5.144;2022-11-13T00:34:30;15.70;;;12.00;;
66402;SDS011;53212;52.112;5.144;2022-11-13T00:36:55;15.20;;;11.70;;
66402;SDS011;53212;52.112;5.144;2022-11-13T00:39:21;17.70;;;12.20;;
66402;SDS011;53212;52.112;5.144;2022-11-13T00:41:46;21.20;;;13.00;;
66402;SDS011;53212;52.112;5.144;2022-11-13T00:44:12;18.40;;;12.20;;
66402;SDS011;53212;52.112;5.144;2022-11-13T00:46:37;18.60;;;12.70;;
66402;SDS011;53212;52.112;5.144;2022-11-13T00:49:03;17.20;;;12.10;;
66402;SDS011;53212;52.112;5.144;2022-11-13T00:51:29;16.90;;;11.80;;
66402;SDS011;53212;52.112;5.144;2022-11-13T00:53:54;17.50;;;11.90;;
66402;SDS011;53212;52.112;5.144;2022-11-13T00:56:20;15.20;;;11.50;;
66402;SDS011;53212;52.112;5.144;2022-11-13T00:58:45;15.30;;;11.20;;
66402;SDS011;53212;52.112;5.144;2022-11-13T01:01:13;16.80;;;11.80;;
66402;SDS011;53212;52.112;5.144;2022-11-13T01:03:42;16.50;;;10.80;;
66402;SDS011;53212;52.112;5.144;2022-11-13T01:06:13;16.50;;;11.40;;
66402;SDS011;53212;52.112;5.144;2022-11-13T01:08:42;14.70;;;11.20;;
66402;SDS011;53212;52.112;5.144;2022-11-13T01:11:14;14.20;;;10.90;;
66402;SDS011;53212;52.112;5.144;2022-11-13T01:13:43;15.70;;;11.10;;
66402;SDS011;53212;52.112;5.144;2022-11-13T01:16:12;16.30;;;11.70;;
66402;SDS011;53212;52.112;5.144;2022-11-13T01:18:38;15.50;;;10.70;;
66402;SDS011;53212;52.112;5.144;2022-11-13T01:21:08;14.70;;;11.10;;
66402;SDS011;53212;52.112;5.144;2022-11-13T01:23:42;12.50;;;10.40;;
66402;SDS011;53212;52.112;5.144;2022-11-13T01:26:12;17.50;;;11.60;;
66402;SDS011;53212;52.112;5.144;2022-11-13T01:28:38;14.30;;;11.10;;
66402;SDS011;53212;52.112;5.144;2022-11-13T01:31:06;15.50;;;11.20;;
66402;SDS011;53212;52.112;5.144;2022-11-13T01:33:34;14.20;;;10.80;;
66402;SDS011;53212;52.112;5.144;2022-11-13T01:36:05;14.10;;;10.50;;
66402;SDS011;53212;52.112;5.144;2022-11-13T01:38:32;15.90;;;10.50;;
66402;SDS011;53212;52.112;5.144;2022-11-13T01:40:58;14.60;;;10.40;;
66402;SDS011;53212;52.112;5.144;2022-11-13T01:43:34;14.90;;;11.50;;
66402;SDS011;53212;52.112;5.144;2022-11-13T01:46:25;15.40;;;10.80;;
66402;SDS011;53212;52.112;5.144;2022-11-13T01:49:00;15.10;;;10.00;;
66402;SDS011;53212;52.112;5.144;2022-11-13T01:51:41;14.70;;;10.30;;
66402;SDS011;53212;52.112;5.144;2022-11-13T01:54:16;13.70;;;10.30;;
66402;SDS011;53212;52.112;5.144;2022-11-13T01:56:48;14.80;;;10.80;;
66402;SDS011;53212;52.112;5.144;2022-11-13T01:59:16;16.90;;;10.90;;
66402;SDS011;53212;52.112;5.144;2022-11-13T02:01:44;14.50;;;9.60;;
66402;SDS011;53212;52.112;5.144;2022-11-13T02:04:10;15.10;;;10.20;;
66402;SDS011;53212;52.112;5.144;2022-11-13T02:06:40;15.90;;;10.70;;
66402;SDS011;53212;52.112;5.144;2022-11-13T02:09:10;18.00;;;10.40;;
66402;SDS011;53212;52.112;5.144;2022-11-13T02:11:37;13.80;;;10.70;;
66402;SDS011;53212;52.112;5.144;2022-11-13T02:14:03;16.00;;;10.20;;
66402;SDS011;53212;52.112;5.144;2022-11-13T02:16:30;16.60;;;9.30;;
66402;SDS011;53212;52.112;5.144;2022-11-13T02:18:57;15.10;;;10.30;;
66402;SDS011;53212;52.112;5.144;2022-11-13T02:21:31;12.40;;;9.10;;
66402;SDS011;53212;52.112;5.144;2022-11-13T02:24:21;14.50;;;9.90;;
66402;SDS011;53212;52.112;5.144;2022-11-13T02:26:54;16.50;;;10.50;;
66402;SDS011;53212;52.112;5.144;2022-11-13T02:29:23;16.40;;;9.90;;
66402;SDS011;53212;52.112;5.144;2022-11-13T02:31:48;15.20;;;9.00;;
66402;SDS011;53212;52.112;5.144;2022-11-13T02:34:14;13.50;;;9.00;;
66402;SDS011;53212;52.112;5.144;2022-11-13T02:36:39;16.30;;;10.00;;
66402;SDS011;53212;52.112;5.144;2022-11-13T02:39:07;15.00;;;10.10;;
66402;SDS011;53212;52.112;5.144;2022-11-13T02:41:34;14.00;;;8.80;;
66402;SDS011;53212;52.112;5.144;2022-11-13T02:44:00;15.30;;;9.90;;
66402;SDS011;53212;52.112;5.144;2022-11-13T02:46:25;14.60;;;9.60;;
66402;SDS011;53212;52.112;5.144;2022-11-13T02:48:50;13.30;;;9.60;;
66402;SDS011;53212;52.112;5.144;2022-11-13T02:51:16;13.90;;;9.70;;
66402;SDS011;53212;52.112;5.144;2022-11-13T02:53:41;16.00;;;9.70;;
66402;SDS011;53212;52.112;5.144;2022-11-13T02:56:07;14.30;;;9.40;;
66402;SDS011;53212;52.112;5.144;2022-11-13T02:58:32;12.10;;;8.40;;
66402;SDS011;53212;52.112;5.144;2022-11-13T03:01:00;11.10;;;8.20;;
66402;SDS011;53212;52.112;5.144;2022-11-13T03:03:27;13.60;;;8.90;;
66402;SDS011;53212;52.112;5.144;2022-11-13T03:05:53;10.40;;;8.50;;
66402;SDS011;53212;52.112;5.144;2022-11-13T03:08:18;12.40;;;7.70;;
66402;SDS011;53212;52.112;5.144;2022-11-13T03:10:45;13.80;;;9.80;;
66402;SDS011;53212;52.112;5.144;2022-11-13T03:13:10;13.70;;;9.30;;
66402;SDS011;53212;52.112;5.144;2022-11-13T03:15:36;13.30;;;9.00;;
66402;SDS011;53212;52.112;5.144;2022-11-13T03:18:05;12.70;;;8.90;;
66402;SDS011;53212;52.112;5.144;2022-11-13T03:20:32;14.90;;;9.10;;
66402;SDS011;53212;52.112;5.144;2022-11-13T03:22:59;14.40;;;8.50;;
66402;SDS011;53212;52.112;5.144;2022-11-13T03:25:25;13.60;;;8.90;;
66402;SDS011;53212;52.112;5.144;2022-11-13T03:27:50;15.00;;;9.50;;
66402;SDS011;53212;52.112;5.144;2022-11-13T03:30:16;11.30;;;8.30;;
66402;SDS011;53212;52.112;5.144;2022-11-13T03:32:41;11.00;;;8.40;;
66402;SDS011;53212;52.112;5.144;2022-11-13T03:35:07;11.90;;;9.00;;
66402;SDS011;53212;52.112;5.144;2022-11-13T03:37:33;14.20;;;8.80;;
66402;SDS011;53212;52.112;5.144;2022-11-13T03:39:58;14.20;;;8.90;;
66402;SDS011;53212;52.112;5.144;2022-11-13T03:42:23;15.60;;;8.80;;
66402;SDS011;53212;52.112;5.144;2022-11-13T03:44:49;12.80;;;9.20;;
66402;SDS011;53212;52.112;5.144;2022-11-13T03:47:14;11.30;;;8.50;;
66402;SDS011;53212;52.112;5.144;2022-11-13T03:49:40;11.30;;;8.70;;
66402;SDS011;53212;52.112;5.144;2022-11-13T03:52:05;11.80;;;8.60;;
66402;SDS011;53212;52.112;5.144;2022-11-13T03:54:31;10.60;;;8.70;;
66402;SDS011;53212;52.112;5.144;2022-11-13T03:56:56;13.80;;;9.10;;
66402;SDS011;53212;52.112;5.144;2022-11-13T03:59:22;10.90;;;8.40;;
66402;SDS011;53212;52.112;5.144;2022-11-13T04:01:47;13.10;;;9.30;;
66402;SDS011;53212;52.112;5.144;2022-11-13T04:04:13;10.90;;;8.50;;
66402;SDS011;53212;52.112;5.144;2022-11-13T04:06:38;10.40;;;8.30;;
66402;SDS011;53212;52.112;5.144;2022-11-13T04:09:03;15.30;;;8.80;;
66402;SDS011;53212;52.112;5.144;2022-11-13T04:11:29;13.10;;;8.10;;
66402;SDS011;53212;52.112;5.144;2022-11-13T04:13:54;11.40;;;8.10;;
66402;SDS011;53212;52.112;5.144;2022-11-13T04:16:20;10.40;;;7.80;;
66402;SDS011;53212;52.112;5.144;2022-11-13T04:18:45;13.20;;;8.30;;
66402;SDS011;53212;52.112;5.144;2022-11-13T04:21:10;13.00;;;8.60;;
66402;SDS011;53212;52.112;5.144;2022-11-13T04:23:36;15.40;;;8.50;;
66402;SDS011;53212;52.112;5.144;2022-11-13T04:26:01;12.80;;;8.40;;
66402;SDS011;53212;52.112;5.144;2022-11-13T04:28:27;9.70;;;8.00;;
66402;SDS011;53212;52.112;5.144;2022-11-13T04:30:53;10.60;;;8.00;;
66402;SDS011;53212;52.112;5.144;2022-11-13T04:33:19;11.20;;;8.00;;
66402;SDS011;53212;52.112;5.144;2022-11-13T04:35:44;9.90;;;7.60;;
66402;SDS011;53212;52.112;5.144;2022-11-13T04:38:11;9.80;;;7.80;;
66402;SDS011;53212;52.112;5.144;2022-11-13T04:40:37;14.80;;;7.40;;
66402;SDS011;53212;52.112;5.144;2022-11-13T04:43:03;9.50;;;7.60;;
66402;SDS011;53212;52.112;5.144;2022-11-13T04:45:29;10.00;;;7.40;;
66402;SDS011;53212;52.112;5.144;2022-11-13T04:47:55;12.60;;;7.50;;
66402;SDS011;53212;52.112;5.144;2022-11-13T04:50:20;11.30;;;7.70;;
66402;SDS011;53212;52.112;5.144;2022-11-13T04:52:46;8.00;;;7.00;;
66402;SDS011;53212;52.112;5.144;2022-11-13T04:55:12;10.30;;;7.30;;
66402;SDS011;53212;52.112;5.144;2022-11-13T04:57:38;9.70;;;7.60;;
66402;SDS011;53212;52.112;5.144;2022-11-13T05:00:05;11.20;;;7.50;;
66402;SDS011;53212;52.112;5.144;2022-11-13T05:02:32;9.50;;;7.80;;
66402;SDS011;53212;52.112;5.144;2022-11-13T05:04:58;10.70;;;8.10;;
66402;SDS011;53212;52.112;5.144;2022-11-13T05:07:23;10.00;;;7.50;;
66402;SDS011;53212;52.112;5.144;2022-11-13T05:09:50;9.50;;;8.00;;
66402;SDS011;53212;52.112;5.144;2022-11-13T05:12:16;10.70;;;7.40;;
66402;SDS011;53212;52.112;5.144;2022-11-13T05:14:42;11.30;;;7.20;;
66402;SDS011;53212;52.112;5.144;2022-11-13T05:17:08;8.40;;;7.50;;
66402;SDS011;53212;52.112;5.144;2022-11-13T05:19:35;12.10;;;7.50;;
66402;SDS011;53212;52.112;5.144;2022-11-13T05:22:01;12.40;;;8.20;;
66402;SDS011;53212;52.112;5.144;2022-11-13T05:24:27;9.70;;;7.20;;
66402;SDS011;53212;52.112;5.144;2022-11-13T05:26:52;9.60;;;6.80;;
66402;SDS011;53212;52.112;5.144;2022-11-13T05:29:19;10.30;;;7.50;;
66402;SDS011;53212;52.112;5.144;2022-11-13T05:31:45;9.60;;;7.60;;
66402;SDS011;53212;52.112;5.144;2022-11-13T05:34:11;11.00;;;7.70;;
66402;SDS011;53212;52.112;5.144;2022-11-13T05:36:36;8.60;;;6.80;;
66402;SDS011;53212;52.112;5.144;2022-11-13T05:39:02;11.10;;;7.20;;
66402;SDS011;53212;52.112;5.144;2022-11-13T05:41:27;11.80;;;7.20;;
66402;SDS011;53212;52.112;5.144;2022-11-13T05:43:53;9.10;;;7.20;;
66402;SDS011;53212;52.112;5.144;2022-11-13T05:46:21;11.80;;;7.60;;
66402;SDS011;53212;52.112;5.144;2022-11-13T05:48:51;8.60;;;7.40;;
66402;SDS011;53212;52.112;5.144;2022-11-13T05:51:30;10.90;;;7.70;;
66402;SDS011;53212;52.112;5.144;2022-11-13T05:53:57;9.80;;;7.30;;
66402;SDS011;53212;52.112;5.144;2022-11-13T05:56:28;11.10;;;6.90;;
66402;SDS011;53212;52.112;5.144;2022-11-13T05:58:57;9.20;;;7.20;;
66402;SDS011;53212;52.112;5.144;2022-11-13T06:01:28;9.60;;;7.30;;
66402;SDS011;53212;52.112;5.144;2022-11-13T06:03:56;7.60;;;6.80;;
66402;SDS011;53212;52.112;5.144;2022-11-13T06:06:24;10.50;;;7.20;;
66402;SDS011;53212;52.112;5.144;2022-11-13T06:08:51;8.50;;;6.90;;
66402;SDS011;53212;52.112;5.144;2022-11-13T06:11:22;10.00;;;7.20;;
66402;SDS011;53212;52.112;5.144;2022-11-13T06:13:50;9.20;;;7.60;;
66402;SDS011;53212;52.112;5.144;2022-11-13T06:16:22;10.30;;;7.80;;
66402;SDS011;53212;52.112;5.144;2022-11-13T06:18:49;9.20;;;7.50;;
66402;SDS011;53212;52.112;5.144;2022-11-13T06:21:20;11.80;;;7.20;;
66402;SDS011;53212;52.112;5.144;2022-11-13T06:23:47;10.80;;;7.80;;
66402;SDS011;53212;52.112;5.144;2022-11-13T06:26:33;11.90;;;7.30;;
66402;SDS011;53212;52.112;5.144;2022-11-13T06:29:01;9.90;;;7.10;;
66402;SDS011;53212;52.112;5.144;2022-11-13T06:31:30;9.20;;;6.40;;
66402;SDS011;53212;52.112;5.144;2022-11-13T06:33:58;8.30;;;7.10;;
66402;SDS011;53212;52.112;5.144;2022-11-13T06:36:26;10.50;;;6.90;;
66402;SDS011;53212;52.112;5.144;2022-11-13T06:38:53;9.80;;;7.20;;
66402;SDS011;53212;52.112;5.144;2022-11-13T06:41:20;9.10;;;7.10;;
66402;SDS011;53212;52.112;5.144;2022-11-13T06:43:48;11.70;;;7.50;;
66402;SDS011;53212;52.112;5.144;2022-11-13T06:46:19;8.00;;;7.20;;
66402;SDS011;53212;52.112;5.144;2022-11-13T06:48:46;10.30;;;8.00;;
66402;SDS011;53212;52.112;5.144;2022-11-13T06:51:23;10.60;;;8.20;;
66402;SDS011;53212;52.112;5.144;2022-11-13T06:53:52;9.70;;;7.50;;
66402;SDS011;53212;52.112;5.144;2022-11-13T06:56:18;8.20;;;6.60;;
66402;SDS011;53212;52.112;5.144;2022-11-13T06:58:44;8.00;;;7.30;;
66402;SDS011;53212;52.112;5.144;2022-11-13T07:01:15;8.10;;;6.70;;
66402;SDS011;53212;52.112;5.144;2022-11-13T07:03:42;9.40;;;6.90;;
66402;SDS011;53212;52.112;5.144;2022-11-13T07:06:11;8.40;;;6.80;;
66402;SDS011;53212;52.112;5.144;2022-11-13T07:08:45;10.20;;;7.30;;
66402;SDS011;53212;52.112;5.144;2022-11-13T07:11:14;9.10;;;7.80;;
66402;SDS011;53212;52.112;5.144;2022-11-13T07:13:41;11.40;;;8.40;;
66402;SDS011;53212;52.112;5.144;2022-11-13T07:16:07;10.80;;;8.50;;
66402;SDS011;53212;52.112;5.144;2022-11-13T07:18:34;11.90;;;8.20;;
66402;SDS011;53212;52.112;5.144;2022-11-13T07:21:06;10.90;;;8.40;;
66402;SDS011;53212;52.112;5.144;2022-11-13T07:23:34;11.30;;;8.60;;
66402;SDS011;53212;52.112;5.144;2022-11-13T07:26:04;12.20;;;8.30;;
66402;SDS011;53212;52.112;5.144;2022-11-13T07:28:29;12.00;;;7.90;;
66402;SDS011;53212;52.112;5.144;2022-11-13T07:30:59;9.90;;;7.60;;
66402;SDS011;53212;52.112;5.144;2022-11-13T07:33:25;9.40;;;7.70;;
66402;SDS011;53212;52.112;5.144;2022-11-13T07:35:54;12.70;;;8.10;;
66402;SDS011;53212;52.112;5.144;2022-11-13T07:38:21;10.10;;;7.50;;
66402;SDS011;53212;52.112;5.144;2022-11-13T07:40:47;10.10;;;7.80;;
66402;SDS011;53212;52.112;5.144;2022-11-13T07:43:13;9.90;;;7.30;;
66402;SDS011;53212;52.112;5.144;2022-11-13T07:45:38;9.60;;;7.80;;
66402;SDS011;53212;52.112;5.144;2022-11-13T07:48:04;9.10;;;8.10;;
66402;SDS011;53212;52.112;5.144;2022-11-13T07:50:32;9.10;;;7.80;;
66402;SDS011;53212;52.112;5.144;2022-11-13T07:53:03;8.00;;;7.00;;
66402;SDS011;53212;52.112;5.144;2022-11-13T07:55:32;11.60;;;7.70;;
66402;SDS011;53212;52.112;5.144;2022-11-13T07:57:59;10.10;;;7.60;;
66402;SDS011;53212;52.112;5.144;2022-11-13T08:00:26;9.40;;;7.70;;
66402;SDS011;53212;52.112;5.144;2022-11-13T08:02:53;11.70;;;7.40;;
66402;SDS011;53212;52.112;5.144;2022-11-13T08:05:19;10.00;;;7.70;;
66402;SDS011;53212;52.112;5.144;2022-11-13T08:07:49;12.30;;;7.80;;
66402;SDS011;53212;52.112;5.144;2022-11-13T08:10:16;11.70;;;8.50;;
66402;SDS011;53212;52.112;5.144;2022-11-13T08:12:43;10.00;;;8.10;;
66402;SDS011;53212;52.112;5.144;2022-11-13T08:15:09;12.00;;;8.30;;
66402;SDS011;53212;52.112;5.144;2022-11-13T08:17:35;15.60;;;10.50;;
66402;SDS011;53212;52.112;5.144;2022-11-13T08:20:00;11.80;;;7.90;;
66402;SDS011;53212;52.112;5.144;2022-11-13T08:22:26;11.10;;;8.30;;
66402;SDS011;53212;52.112;5.144;2022-11-13T08:24:51;12.10;;;8.00;;
66402;SDS011;53212;52.112;5.144;2022-11-13T08:27:19;10.10;;;8.00;;
66402;SDS011;53212;52.112;5.144;2022-11-13T08:29:45;12.30;;;7.90;;
66402;SDS011;53212;52.112;5.144;2022-11-13T08:32:16;11.10;;;7.80;;
66402;SDS011;53212;52.112;5.144;2022-11-13T08:34:43;10.10;;;7.70;;
66402;SDS011;53212;52.112;5.144;2022-11-13T08:37:09;13.50;;;8.80;;
66402;SDS011;53212;52.112;5.144;2022-11-13T08:39:35;9.80;;;8.50;;
66402;SDS011;53212;52.112;5.144;2022-11-13T08:42:01;10.50;;;7.70;;
66402;SDS011;53212;52.112;5.144;2022-11-13T08:44:28;11.00;;;7.60;;
66402;SDS011;53212;52.112;5.144;2022-11-13T08:46:54;10.70;;;7.40;;
66402;SDS011;53212;52.112;5.144;2022-11-13T08:49:20;10.90;;;8.00;;
66402;SDS011;53212;52.112;5.144;2022-11-13T08:51:45;10.50;;;7.50;;
66402;SDS011;53212;52.112;5.144;2022-11-13T08:54:11;10.20;;;7.50;;
66402;SDS011;53212;52.112;5.144;2022-11-13T08:56:36;11.00;;;7.60;;
66402;SDS011;53212;52.112;5.144;2022-11-13T08:59:01;13.60;;;7.50;;
66402;SDS011;53212;52.112;5.144;2022-11-13T09:01:27;10.50;;;8.40;;
66402;SDS011;53212;52.112;5.144;2022-11-13T09:03:52;10.40;;;8.20;;
66402;SDS011;53212;52.112;5.144;2022-11-13T09:06:18;10.60;;;7.80;;
66402;SDS011;53212;52.112;5.144;2022-11-13T09:08:43;9.40;;;7.60;;
66402;SDS011;53212;52.112;5.144;2022-11-13T09:11:08;10.70;;;7.60;;
66402;SDS011;53212;52.112;5.144;2022-11-13T09:13:34;9.80;;;7.40;;
66402;SDS011;53212;52.112;5.144;2022-11-13T09:16:00;9.50;;;8.10;;
66402;SDS011;53212;52.112;5.144;2022-11-13T09:18:27;13.40;;;8.20;;
66402;SDS011;53212;52.112;5.144;2022-11-13T09:20:54;11.20;;;8.50;;
66402;SDS011;53212;52.112;5.144;2022-11-13T09:23:24;11.50;;;8.20;;
66402;SDS011;53212;52.112;5.144;2022-11-13T09:25:50;11.90;;;8.10;;
66402;SDS011;53212;52.112;5.144;2022-11-13T09:28:15;10.70;;;7.60;;
66402;SDS011;53212;52.112;5.144;2022-11-13T09:30:41;11.60;;;7.60;;
66402;SDS011;53212;52.112;5.144;2022-11-13T09:33:06;12.20;;;7.80;;
66402;SDS011;53212;52.112;5.144;2022-11-13T09:35:32;8.80;;;7.40;;
66402;SDS011;53212;52.112;5.144;2022-11-13T09:38:11;8.70;;;7.50;;
66402;SDS011;53212;52.112;5.144;2022-11-13T09:43:45;9.40;;;7.20;;
66402;SDS011;53212;52.112;5.144;2022-11-13T09:46:25;9.20;;;7.70;;
66402;SDS011;53212;52.112;5.144;2022-11-13T09:48:54;12.40;;;7.90;;
66402;SDS011;53212;52.112;5.144;2022-11-13T09:54:05;10.90;;;7.60;;
66402;SDS011;53212;52.112;5.144;2022-11-13T09:56:45;11.10;;;7.90;;
66402;SDS011;53212;52.112;5.144;2022-11-13T09:59:31;12.20;;;8.70;;
66402;SDS011;53212;52.112;5.144;2022-11-13T10:13:27;9.40;;;8.00;;
66402;SDS011;53212;52.112;5.144;2022-11-13T10:16:26;10.20;;;7.70;;
66402;SDS011;53212;52.112;5.144;2022-11-13T10:18:52;11.80;;;8.30;;
66402;SDS011;53212;52.112;5.144;2022-11-13T10:21:42;9.60;;;8.00;;
66402;SDS011;53212;52.112;5.144;2022-11-13T10:24:16;10.40;;;8.40;;
66402;SDS011;53212;52.112;5.144;2022-11-13T10:26:46;14.80;;;7.90;;
66402;SDS011;53212;52.112;5.144;2022-11-13T10:29:14;8.60;;;7.40;;
66402;SDS011;53212;52.112;5.144;2022-11-13T10:31:46;12.30;;;8.10;;
66402;SDS011;53212;52.112;5.144;2022-11-13T10:34:14;8.40;;;7.30;;
66402;SDS011;53212;52.112;5.144;2022-11-13T10:37:00;10.40;;;6.80;;
66402;SDS011;53212;52.112;5.144;2022-11-13T10:39:58;8.80;;;6.70;;
66402;SDS011;53212;52.112;5.144;2022-11-13T10:42:31;9.10;;;5.70;;
66402;SDS011;53212;52.112;5.144;2022-11-13T10:45:04;9.40;;;5.90;;
66402;SDS011;53212;52.112;5.144;2022-11-13T10:47:43;5.80;;;4.80;;
66402;SDS011;53212;52.112;5.144;2022-11-13T10:52:47;6.40;;;4.60;;
66402;SDS011;53212;52.112;5.144;2022-11-13T10:55:33;6.90;;;5.00;;
66402;SDS011;53212;52.112;5.144;2022-11-13T10:58:17;6.30;;;4.80;;
66402;SDS011;53212;52.112;5.144;2022-11-13T11:00:45;6.80;;;4.20;;
66402;SDS011;53212;52.112;5.144;2022-11-13T11:03:24;5.80;;;4.30;;
66402;SDS011;53212;52.112;5.144;2022-11-13T11:06:02;4.90;;;4.40;;
66402;SDS011;53212;52.112;5.144;2022-11-13T11:08:33;6.30;;;4.50;;
66402;SDS011;53212;52.112;5.144;2022-11-13T11:11:02;5.70;;;4.10;;
66402;SDS011;53212;52.112;5.144;2022-11-13T11:13:50;4.20;;;3.80;;
66402;SDS011;53212;52.112;5.144;2022-11-13T11:16:19;6.00;;;4.10;;
66402;SDS011;53212;52.112;5.144;2022-11-13T11:18:54;4.80;;;3.70;;
66402;SDS011;53212;52.112;5.144;2022-11-13T11:21:28;7.10;;;3.90;;
66402;SDS011;53212;52.112;5.144;2022-11-13T11:24:15;5.90;;;3.70;;
66402;SDS011;53212;52.112;5.144;2022-11-13T11:26:51;7.40;;;3.80;;
66402;SDS011;53212;52.112;5.144;2022-11-13T11:29:49;5.50;;;4.00;;
66402;SDS011;53212;52.112;5.144;2022-11-13T11:32:42;5.40;;;3.80;;
66402;SDS011;53212;52.112;5.144;2022-11-13T11:35:47;4.60;;;3.70;;
66402;SDS011;53212;52.112;5.144;2022-11-13T11:41:20;4.50;;;2.90;;
66402;SDS011;53212;52.112;5.144;2022-11-13T11:44:00;6.30;;;4.00;;
66402;SDS011;53212;52.112;5.144;2022-11-13T11:46:33;4.60;;;3.20;;
66402;SDS011;53212;52.112;5.144;2022-11-13T11:48:59;4.30;;;3.30;;
66402;SDS011;53212;52.112;5.144;2022-11-13T11:57:37;4.30;;;3.10;;
66402;SDS011;53212;52.112;5.144;2022-11-13T12:00:12;5.60;;;3.30;;
66402;SDS011;53212;52.112;5.144;2022-11-13T12:05:52;4.80;;;3.00;;
66402;SDS011;53212;52.112;5.144;2022-11-13T12:13:57;5.20;;;3.40;;
66402;SDS011;53212;52.112;5.144;2022-11-13T12:16:37;4.60;;;3.20;;
66402;SDS011;53212;52.112;5.144;2022-11-13T12:19:10;4.30;;;3.30;;
66402;SDS011;53212;52.112;5.144;2022-11-13T12:22:11;4.70;;;3.70;;
66402;SDS011;53212;52.112;5.144;2022-11-13T12:33:53;5.40;;;3.50;;
66402;SDS011;53212;52.112;5.144;2022-11-13T12:36:43;4.80;;;3.40;;
66402;SDS011;53212;52.112;5.144;2022-11-13T12:42:01;4.10;;;3.30;;
66402;SDS011;53212;52.112;5.144;2022-11-13T12:44:44;5.50;;;4.10;;
66402;SDS011;53212;52.112;5.144;2022-11-13T12:47:17;4.30;;;3.70;;
66402;SDS011;53212;52.112;5.144;2022-11-13T12:49:43;5.40;;;4.40;;
66402;SDS011;53212;52.112;5.144;2022-11-13T12:57:06;4.50;;;3.70;;
66402;SDS011;53212;52.112;5.144;2022-11-13T12:59:44;5.60;;;4.30;;
66402;SDS011;53212;52.112;5.144;2022-11-13T13:05:55;5.70;;;4.00;;
66402;SDS011;53212;52.112;5.144;2022-11-13T13:09:00;4.50;;;3.40;;
66402;SDS011;53212;52.112;5.144;2022-11-13T13:17:28;5.40;;;4.10;;
66402;SDS011;53212;52.112;5.144;2022-11-13T13:22:41;4.60;;;4.10;;
66402;SDS011;53212;52.112;5.144;2022-11-13T13:25:33;5.50;;;4.70;;
66402;SDS011;53212;52.112;5.144;2022-11-13T13:28:01;5.00;;;3.90;;
66402;SDS011;53212;52.112;5.144;2022-11-13T13:30:52;7.80;;;4.50;;
66402;SDS011;53212;52.112;5.144;2022-11-13T13:42:32;5.50;;;3.70;;
66402;SDS011;53212;52.112;5.144;2022-11-13T13:47:55;5.50;;;3.80;;
66402;SDS011;53212;52.112;5.144;2022-11-13T13:50:33;4.80;;;3.90;;
66402;SDS011;53212;52.112;5.144;2022-11-13T13:53:04;5.90;;;3.80;;
66402;SDS011;53212;52.112;5.144;2022-11-13T13:55:34;6.00;;;4.10;;
66402;SDS011;53212;52.112;5.144;2022-11-13T13:58:07;4.70;;;4.00;;
66402;SDS011;53212;52.112;5.144;2022-11-13T14:00:36;5.00;;;3.60;;
66402;SDS011;53212;52.112;5.144;2022-11-13T14:03:02;5.50;;;3.80;;
66402;SDS011;53212;52.112;5.144;2022-11-13T14:05:30;4.30;;;3.70;;
66402;SDS011;53212;52.112;5.144;2022-11-13T14:07:59;6.00;;;3.60;;
66402;SDS011;53212;52.112;5.144;2022-11-13T14:10:27;4.30;;;3.60;;
66402;SDS011;53212;52.112;5.144;2022-11-13T14:12:54;3.60;;;2.90;;
66402;SDS011;53212;52.112;5.144;2022-11-13T14:15:23;4.70;;;3.30;;
66402;SDS011;53212;52.112;5.144;2022-11-13T14:18:24;3.50;;;2.80;;
66402;SDS011;53212;52.112;5.144;2022-11-13T14:20:52;4.50;;;3.10;;
66402;SDS011;53212;52.112;5.144;2022-11-13T14:25:52;4.80;;;2.70;;
66402;SDS011;53212;52.112;5.144;2022-11-13T14:28:25;3.90;;;3.00;;
66402;SDS011;53212;52.112;5.144;2022-11-13T14:31:01;4.00;;;3.10;;
66402;SDS011;53212;52.112;5.144;2022-11-13T14:33:39;4.20;;;3.00;;
66402;SDS011;53212;52.112;5.144;2022-11-13T14:36:09;5.10;;;2.90;;
66402;SDS011;53212;52.112;5.144;2022-11-13T14:38:40;5.20;;;3.20;;
66402;SDS011;53212;52.112;5.144;2022-11-13T14:41:30;5.00;;;3.50;;
66402;SDS011;53212;52.112;5.144;2022-11-13T14:44:00;3.30;;;2.50;;
66402;SDS011;53212;52.112;5.144;2022-11-13T14:46:34;3.30;;;2.80;;
66402;SDS011;53212;52.112;5.144;2022-11-13T14:49:11;6.20;;;2.90;;
66402;SDS011;53212;52.112;5.144;2022-11-13T14:51:39;3.00;;;2.70;;
66402;SDS011;53212;52.112;5.144;2022-11-13T14:54:05;3.80;;;2.50;;
66402;SDS011;53212;52.112;5.144;2022-11-13T14:56:51;9.50;;;3.60;;
66402;SDS011;53212;52.112;5.144;2022-11-13T14:59:25;6.70;;;2.90;;
66402;SDS011;53212;52.112;5.144;2022-11-13T15:01:56;5.90;;;2.80;;
66402;SDS011;53212;52.112;5.144;2022-11-13T15:04:23;3.50;;;2.70;;
66402;SDS011;53212;52.112;5.144;2022-11-13T15:06:49;3.20;;;2.60;;
66402;SDS011;53212;52.112;5.144;2022-11-13T15:09:20;5.70;;;3.00;;
66402;SDS011;53212;52.112;5.144;2022-11-13T15:11:47;2.80;;;2.60;;
66402;SDS011;53212;52.112;5.144;2022-11-13T15:14:17;4.90;;;3.10;;
66402;SDS011;53212;52.112;5.144;2022-11-13T15:19:30;3.00;;;2.70;;
66402;SDS011;53212;52.112;5.144;2022-11-13T15:21:59;4.50;;;3.00;;
66402;SDS011;53212;52.112;5.144;2022-11-13T15:24:25;4.50;;;2.90;;
66402;SDS011;53212;52.112;5.144;2022-11-13T15:26:52;8.10;;;3.40;;
66402;SDS011;53212;52.112;5.144;2022-11-13T15:29:17;6.30;;;3.00;;
66402;SDS011;53212;52.112;5.144;2022-11-13T15:31:44;5.10;;;3.10;;
66402;SDS011;53212;52.112;5.144;2022-11-13T15:34:12;4.60;;;3.00;;
66402;SDS011;53212;52.112;5.144;2022-11-13T15:36:39;6.90;;;3.00;;
66402;SDS011;53212;52.112;5.144;2022-11-13T15:39:06;4.60;;;3.10;;
66402;SDS011;53212;52.112;5.144;2022-11-13T15:41:33;6.80;;;3.10;;
66402;SDS011;53212;52.112;5.144;2022-11-13T15:44:01;4.00;;;2.90;;
66402;SDS011;53212;52.112;5.144;2022-11-13T15:46:31;4.90;;;2.90;;
66402;SDS011;53212;52.112;5.144;2022-11-13T15:48:56;7.70;;;3.00;;
66402;SDS011;53212;52.112;5.144;2022-11-13T15:51:41;3.80;;;3.30;;
66402;SDS011;53212;52.112;5.144;2022-11-13T15:54:22;8.60;;;3.40;;
66402;SDS011;53212;52.112;5.144;2022-11-13T15:56:51;5.70;;;3.20;;
66402;SDS011;53212;52.112;5.144;2022-11-13T15:59:16;5.20;;;3.20;;
66402;SDS011;53212;52.112;5.144;2022-11-13T16:01:42;4.60;;;3.10;;
66402;SDS011;53212;52.112;5.144;2022-11-13T16:04:08;31.80;;;14.90;;
66402;SDS011;53212;52.112;5.144;2022-11-13T16:06:35;11.60;;;6.30;;
66402;SDS011;53212;52.112;5.144;2022-11-13T16:09:01;31.90;;;13.90;;
66402;SDS011;53212;52.112;5.144;2022-11-13T16:11:32;88.40;;;33.60;;
66402;SDS011;53212;52.112;5.144;2022-11-13T16:13:58;26.60;;;12.10;;
66402;SDS011;53212;52.112;5.144;2022-11-13T16:16:27;12.40;;;6.50;;